الصفحة الرئيسية
METAR-TAF:

METAR-TAF

مطار :

مطار الأمير نايف بن عبد العزيز الدولي

مدينة بريدة, السعودية

دائرة عرض: 26-18N, خط طول: 043-46E, ارتفاع: 648 متر

مراقبة الطقس الحالي

تاريخ ووقت الإصدار 59 دقيقة قبل الساعة 09:00UTC
ريح 9 عقدة من الجنوب الغربي
درجة الحرارة 42°درجة مئوية
الرطوبة 17%
ضغط 1004 hPa
الرؤية 10 كم أو أكثر
الغيوم لا تقل 1500 م ولا وجود لمزنة ركامية السحاب الأسود

METAR: OEGS 040900Z 22009KT CAVOK 42/12 Q1004

زمن: 12:59 (09:59 UTC)

توقعات

تاريخ ووقت الإصدار 10ساعات و 59 دقيقة قبل الساعة 23:00UTC
التوقعات صالحة من04 الساعة 00 UTC إلى 05 الساعة 06 UTC
ريح 3 عقدةمن اتجاهات متغيرة
الرؤية 10 كم أو أكثر
الغيوم لا تقل 1500 م ولا وجود لمزنة ركامية السحاب الأسود
أصبح
من 04 الساعة 06 UTC إلى 04 الساعة 08 UTC
ريح 12 عقدة من الشمال

TAF: OEGS 032300Z 0400/0506 VRB03KT CAVOK BECMG 0406/0408 35012KT

أرصاد الطقس والتوقعات من أكثر من 4000 مطار (تقارير الطقس للمطار METAR والتنبؤ بالطقس بالمطارTAF).

المحطات المتاحة هي النقط الصفراء والحمراء على الخريطة.

حرك المؤشر فوق النقطة لمعرفة اسم المحطة.

ثم انقر لمعرفة أرصاد وتوقعات الطقس.

لتغيير الخارطة: اضغط على الأزرار الخضراء مع رمز الصليب الأسود للتكبير. على الزر الأخضر مع شرطة للتصغير، أو على الأسهم الخضراء للخرائط المجاورة.


METAR-TAF: